This is the latest recevied weather packets stored in our database for station/object DH1NAI-6. If no packets are shown the sender has not sent any weather packets the latest 1 day(s).
| Time | Temp. | Humidity | Pressure | Rain* | Wind** | Luminosity | Snow |
|---|---|---|---|---|---|---|---|
| 1777998978 | 15.56° C | 87% | 1004.1 hPa | 0 mm | 0.45 m/s, 140° | 23 W/m² | - |
| 1777998369 | 15.56° C | 88% | 1004.1 hPa | 0 mm | 0.45 m/s, 156° | 24 W/m² | - |
| 1777997761 | 15.56° C | 93% | 1004.4 hPa | 0 mm | 0 m/s | 20 W/m² | - |
| 1777997153 | 15.56° C | 92% | 1004.6 hPa | 0 mm | 0 m/s | 19 W/m² | - |
| 1777996545 | 15.56° C | 92% | 1004.3 hPa | 1.02 mm | 0.45 m/s, 120° | 19 W/m² | - |
| 1777995932 | 15.56° C | 91% | 1004.7 hPa | 1.02 mm | 0.89 m/s, 132° | 28 W/m² | - |
| 1777995330 | 15° C | 92% | 1004.6 hPa | 1.02 mm | 1.79 m/s, 157° | 30 W/m² | - |
| 1777994721 | 15° C | 92% | 1004.6 hPa | 1.02 mm | 0.89 m/s, 125° | 22 W/m² | - |
| 1777994097 | 15° C | 92% | 1004.8 hPa | 1.02 mm | 0 m/s | 12 W/m² | - |
| 1777993489 | 15.56° C | 91% | 1004.9 hPa | 0 mm | 0 m/s | 10 W/m² | - |
| 1777992881 | 16.11° C | 86% | 1004.7 hPa | 1.02 mm | 0.45 m/s, 158° | 10 W/m² | - |
| 1777992272 | 16.67° C | 79% | 1005 hPa | 0 mm | 0 m/s | 10 W/m² | - |
| 1777991665 | 17.22° C | 77% | 1005 hPa | 0 mm | 0.89 m/s, 67° | 16 W/m² | - |
| 1777991058 | 17.78° C | 76% | 1004.9 hPa | 0 mm | 0.89 m/s, 125° | 26 W/m² | - |
| 1777990449 | 18.33° C | 75% | 1005 hPa | 0 mm | 1.34 m/s, 188° | 60 W/m² | - |
| 1777989825 | 17.78° C | 75% | 1005.1 hPa | 0 mm | 0.89 m/s, 109° | 59 W/m² | - |
| 1777989217 | 17.78° C | 76% | 1005.2 hPa | 0 mm | 0.45 m/s, 171° | 52 W/m² | - |
| 1777988612 | 18.33° C | 75% | 1005.2 hPa | 0 mm | 0.45 m/s, 135° | 42 W/m² | - |
| 1777988012 | 18.89° C | 72% | 1005.4 hPa | 0 mm | 0.89 m/s, 101° | 56 W/m² | - |
| 1777987393 | 19.44° C | 69% | 1005.4 hPa | 0 mm | 1.79 m/s, 138° | 162 W/m² | - |
| 1777986785 | 18.89° C | 71% | 1005.6 hPa | 0 mm | 0.89 m/s, 312° | 167 W/m² | - |
| 1777985569 | 19.44° C | 71% | 1005.7 hPa | 0 mm | 2.24 m/s, 37° | 173 W/m² | - |
| 1777984962 | 19.44° C | 72% | 1005.9 hPa | 0 mm | 1.34 m/s, 102° | 147 W/m² | - |
| 1777984353 | 18.89° C | 72% | 1006 hPa | 0 mm | 0.89 m/s, 186° | 156 W/m² | - |
| 1777983746 | 19.44° C | 73% | 1005.9 hPa | 0 mm | 1.34 m/s, 189° | 177 W/m² | - |
* Rain latest hour (hover to see other rain measurements)
** Current wind speed in m/s (hover to see current wind gust speed)